createdAt,value
2019-04-29T00:00:46.514Z,18.70
2019-04-29T00:01:52.358Z,16.27
2019-04-29T00:02:56.714Z,16.00
2019-04-29T00:04:00.943Z,16.37
2019-04-29T00:05:05.440Z,17.83
2019-04-29T00:06:09.689Z,18.80
2019-04-29T00:07:14.519Z,15.60
2019-04-29T00:08:18.750Z,15.77
2019-04-29T00:09:22.982Z,19.10
2019-04-29T00:10:27.434Z,14.63
2019-04-29T00:11:31.671Z,14.60
2019-04-29T00:12:35.908Z,14.77
2019-04-29T00:13:40.141Z,13.97
2019-04-29T00:14:47.265Z,12.93
2019-04-29T00:16:10.464Z,15.57
2019-04-29T00:17:23.716Z,17.70
2019-04-29T00:18:45.726Z,17.33
2019-04-29T00:20:07.992Z,14.23
2019-04-29T00:21:12.727Z,13.27
2019-04-29T00:22:16.948Z,16.27
2019-04-29T00:23:21.183Z,14.83
2019-04-29T00:24:25.420Z,12.13
2019-04-29T00:25:29.711Z,14.40
2019-04-29T00:26:34.051Z,14.03
2019-04-29T00:27:38.304Z,16.20
2019-04-29T00:28:42.641Z,15.83
2019-04-29T00:29:46.967Z,13.63
2019-04-29T00:30:51.235Z,14.10
2019-04-29T00:31:55.455Z,15.87
2019-04-29T00:32:59.697Z,13.90
2019-04-29T00:34:03.918Z,16.43
2019-04-29T00:35:08.153Z,15.70
2019-04-29T00:36:12.412Z,14.43
2019-04-29T00:37:24.871Z,13.20
2019-04-29T00:38:41.152Z,15.60
2019-04-29T00:40:07.078Z,14.23
2019-04-29T00:41:36.476Z,17.40
2019-04-29T00:42:53.259Z,15.13
2019-04-29T00:43:59.990Z,17.40
2019-04-29T00:45:06.504Z,13.07
2019-04-29T00:46:10.980Z,14.53
2019-04-29T00:47:15.260Z,15.07
2019-04-29T00:48:19.466Z,14.00
2019-04-29T00:49:23.884Z,14.40
2019-04-29T00:50:28.111Z,15.93
2019-04-29T00:51:32.383Z,14.17
2019-04-29T00:52:36.607Z,16.03
2019-04-29T00:53:41.037Z,15.70
2019-04-29T00:54:50.986Z,16.63
2019-04-29T00:55:55.399Z,20.03
2019-04-29T00:56:59.658Z,15.70
2019-04-29T00:58:03.889Z,15.40
2019-04-29T00:59:08.114Z,14.20
2019-04-29T01:00:15.076Z,13.73
2019-04-29T01:01:23.351Z,17.27
2019-04-29T01:02:27.597Z,14.90
2019-04-29T01:03:31.855Z,14.80
2019-04-29T01:04:36.104Z,14.93
2019-04-29T01:05:40.536Z,16.40
2019-04-29T01:06:44.795Z,15.47
2019-04-29T01:07:49.068Z,20.73
2019-04-29T01:08:53.307Z,13.27
2019-04-29T01:09:57.532Z,15.03
2019-04-29T01:11:01.766Z,14.10
2019-04-29T01:12:06.038Z,14.43
2019-04-29T01:13:10.219Z,14.03
2019-04-29T01:14:14.460Z,17.10
2019-04-29T01:15:18.691Z,15.03
2019-04-29T01:16:22.919Z,14.90
2019-04-29T01:17:27.454Z,13.87
2019-04-29T01:18:31.683Z,15.47
2019-04-29T01:19:35.926Z,15.13
2019-04-29T01:20:40.273Z,14.20
2019-04-29T01:21:44.535Z,15.90
2019-04-29T01:22:48.790Z,15.10
2019-04-29T01:23:53.080Z,15.40
2019-04-29T01:24:58.696Z,15.93
2019-04-29T01:26:11.247Z,14.37
2019-04-29T01:27:23.299Z,12.27
2019-04-29T01:28:50.459Z,14.57
2019-04-29T01:29:54.742Z,14.00
2019-04-29T01:31:06.095Z,16.23
2019-04-29T01:32:10.347Z,14.67
2019-04-29T01:33:14.585Z,16.87
2019-04-29T01:34:23.722Z,14.90
2019-04-29T01:35:27.949Z,14.60
2019-04-29T01:36:39.645Z,14.10
2019-04-29T01:37:43.910Z,15.03
2019-04-29T01:38:49.159Z,16.97
2019-04-29T01:40:05.295Z,17.57
2019-04-29T01:41:14.339Z,22.90
2019-04-29T01:42:24.768Z,14.07
2019-04-29T01:43:47.936Z,17.87
2019-04-29T01:44:52.162Z,17.17
2019-04-29T01:45:56.390Z,18.00
2019-04-29T01:47:00.628Z,17.90
2019-04-29T01:48:04.953Z,18.83
2019-04-29T01:49:09.186Z,15.47
2019-04-29T01:50:13.414Z,18.20
2019-04-29T01:51:17.659Z,19.27
2019-04-29T01:52:21.898Z,20.70
2019-04-29T01:53:26.143Z,20.50
2019-04-29T01:54:30.375Z,21.30
2019-04-29T01:55:34.632Z,18.20
2019-04-29T01:56:38.847Z,25.33
2019-04-29T01:57:43.215Z,17.53
2019-04-29T01:58:47.458Z,19.20
2019-04-29T01:59:51.679Z,17.67
2019-04-29T02:00:55.907Z,21.07
2019-04-29T02:02:00.210Z,18.90
2019-04-29T02:03:04.562Z,18.67
2019-04-29T02:04:08.785Z,20.13
2019-04-29T02:05:13.080Z,19.73
2019-04-29T02:06:17.319Z,21.27
2019-04-29T02:07:21.540Z,19.47
2019-04-29T02:08:25.803Z,18.33
2019-04-29T02:09:34.767Z,18.70
2019-04-29T02:10:39.004Z,16.97
2019-04-29T02:11:43.227Z,18.80
2019-04-29T02:12:50.350Z,21.33
2019-04-29T02:13:54.578Z,21.87
2019-04-29T02:14:58.819Z,21.83
2019-04-29T02:16:03.060Z,19.63
2019-04-29T02:17:07.298Z,19.87
2019-04-29T02:18:11.554Z,20.83
2019-04-29T02:19:15.847Z,22.13
2019-04-29T02:20:20.183Z,17.63
2019-04-29T02:21:24.504Z,20.33
2019-04-29T02:22:43.135Z,19.90
2019-04-29T02:23:56.249Z,17.17
2019-04-29T02:25:23.542Z,19.60
2019-04-29T02:26:27.847Z,19.43
2019-04-29T02:27:32.079Z,19.47
2019-04-29T02:28:36.453Z,20.10
2019-04-29T02:29:40.633Z,19.30
2019-04-29T02:30:46.892Z,18.70
2019-04-29T02:31:51.121Z,18.87
2019-04-29T02:32:55.389Z,18.07
2019-04-29T02:33:59.643Z,20.33
2019-04-29T02:35:03.899Z,19.60
2019-04-29T02:36:08.157Z,19.90
2019-04-29T02:37:13.968Z,19.43
2019-04-29T02:38:26.585Z,21.27
2019-04-29T02:39:36.709Z,17.27
2019-04-29T02:40:48.807Z,19.20
2019-04-29T02:42:14.798Z,20.13
2019-04-29T02:43:22.950Z,20.43
2019-04-29T02:44:27.187Z,21.07
2019-04-29T02:45:33.691Z,19.07
2019-04-29T02:46:37.921Z,18.50
2019-04-29T02:47:42.146Z,18.67
2019-04-29T02:48:46.405Z,17.27
2019-04-29T02:49:50.647Z,18.53
2019-04-29T02:50:54.846Z,18.40
2019-04-29T02:51:59.091Z,19.87
2019-04-29T02:53:03.319Z,20.53
2019-04-29T02:54:07.577Z,18.97
2019-04-29T02:55:13.376Z,20.87
2019-04-29T02:56:17.629Z,19.90
2019-04-29T02:57:33.253Z,22.07
2019-04-29T02:58:46.153Z,20.73
2019-04-29T02:59:52.316Z,19.07
2019-04-29T03:01:15.474Z,21.97
2019-04-29T03:02:33.653Z,18.90
2019-04-29T03:03:51.068Z,19.97
2019-04-29T03:05:16.033Z,18.83
2019-04-29T03:06:20.253Z,18.37
2019-04-29T03:07:24.489Z,19.63
2019-04-29T03:08:28.712Z,18.03
2019-04-29T03:09:34.555Z,18.97
2019-04-29T03:10:38.791Z,22.10
2019-04-29T03:11:43.017Z,18.67
2019-04-29T03:12:47.265Z,21.30
2019-04-29T03:13:51.501Z,23.47
2019-04-29T03:14:55.772Z,20.37
2019-04-29T03:16:00.009Z,21.70
2019-04-29T03:17:04.240Z,19.17
2019-04-29T03:18:08.468Z,17.53
2019-04-29T03:19:18.727Z,20.07
2019-04-29T03:20:28.137Z,20.63
2019-04-29T03:21:46.605Z,17.00
2019-04-29T03:22:50.945Z,17.90
2019-04-29T03:23:55.376Z,18.23
2019-04-29T03:24:59.681Z,17.63
2019-04-29T03:26:03.907Z,18.77
2019-04-29T03:27:08.148Z,20.47
2019-04-29T03:28:12.469Z,19.50
2019-04-29T03:29:22.596Z,17.10
2019-04-29T03:30:26.823Z,20.47
2019-04-29T03:31:31.128Z,17.70
2019-04-29T03:32:35.442Z,21.57
2019-04-29T03:33:39.654Z,19.10
2019-04-29T03:34:43.916Z,19.13
2019-04-29T03:35:48.135Z,21.67
2019-04-29T03:36:52.381Z,20.43
2019-04-29T03:37:56.615Z,19.87
2019-04-29T03:39:00.845Z,20.90
2019-04-29T03:40:05.472Z,19.03
2019-04-29T03:41:09.694Z,21.47
2019-04-29T03:42:13.944Z,18.53
2019-04-29T03:43:18.181Z,21.00
2019-04-29T03:44:22.410Z,18.70
2019-04-29T03:45:26.680Z,19.93
2019-04-29T03:46:30.931Z,20.87
2019-04-29T03:47:35.166Z,19.77
2019-04-29T03:48:39.400Z,18.27
2019-04-29T03:49:43.655Z,19.77
2019-04-29T03:50:47.887Z,20.30
2019-04-29T03:51:52.122Z,20.47
2019-04-29T03:52:56.397Z,18.37
2019-04-29T03:54:00.589Z,19.67
2019-04-29T03:55:04.950Z,18.70
2019-04-29T03:56:09.190Z,17.37
2019-04-29T03:57:14.406Z,18.97
2019-04-29T03:58:18.649Z,19.50
2019-04-29T03:59:22.865Z,22.13
2019-04-29T04:00:27.148Z,20.17
2019-04-29T04:01:42.554Z,19.00
2019-04-29T04:03:01.463Z,19.43
2019-04-29T04:04:10.957Z,18.33
2019-04-29T04:05:25.516Z,21.80
2019-04-29T04:06:37.710Z,17.87
2019-04-29T04:07:50.025Z,20.47
2019-04-29T04:09:05.936Z,17.47
2019-04-29T04:10:07.232Z,20.77
2019-04-29T04:11:11.504Z,20.70
2019-04-29T04:12:15.729Z,20.33
2019-04-29T04:13:19.972Z,20.60
2019-04-29T04:14:24.212Z,20.60
2019-04-29T04:15:28.429Z,19.67
2019-04-29T04:16:50.241Z,22.13
2019-04-29T04:18:16.467Z,20.07
2019-04-29T04:19:21.591Z,19.50
2019-04-29T04:20:25.825Z,19.47
2019-04-29T04:21:30.093Z,18.63
2019-04-29T04:22:46.767Z,19.23
2019-04-29T04:23:50.936Z,18.87
2019-04-29T04:24:55.169Z,19.53
2019-04-29T04:25:59.426Z,18.37
2019-04-29T04:27:03.772Z,18.63
2019-04-29T04:28:08.013Z,21.60
2019-04-29T04:29:12.240Z,19.87
2019-04-29T04:30:17.584Z,19.07
2019-04-29T04:31:21.923Z,23.00
2019-04-29T04:32:26.292Z,18.37
2019-04-29T04:33:30.542Z,22.27
2019-04-29T04:34:34.772Z,19.10
2019-04-29T04:35:38.997Z,19.67
2019-04-29T04:36:43.250Z,20.17
2019-04-29T04:37:47.493Z,21.77
2019-04-29T04:38:51.769Z,18.20
2019-04-29T04:39:56.243Z,18.37
2019-04-29T04:41:03.862Z,21.67
2019-04-29T04:42:08.091Z,20.73
2019-04-29T04:43:14.795Z,21.20
2019-04-29T04:44:19.032Z,23.13
2019-04-29T04:45:24.271Z,21.43
2019-04-29T04:46:28.552Z,19.93
2019-04-29T04:47:32.824Z,19.47
2019-04-29T04:48:37.067Z,20.23
2019-04-29T04:49:41.292Z,23.20
2019-04-29T04:50:45.528Z,21.87
2019-04-29T04:51:49.804Z,21.57
2019-04-29T04:52:54.146Z,17.70
2019-04-29T04:53:58.503Z,19.37
2019-04-29T04:55:02.783Z,22.07
2019-04-29T04:56:07.155Z,20.40
2019-04-29T04:57:11.399Z,19.80
2019-04-29T04:58:15.644Z,20.40
2019-04-29T04:59:19.884Z,21.93
2019-04-29T05:00:25.562Z,22.80
2019-04-29T05:01:29.899Z,22.30
2019-04-29T05:02:34.235Z,21.63
2019-04-29T05:03:38.514Z,22.37
2019-04-29T05:04:42.764Z,22.17
2019-04-29T05:05:47.000Z,22.67
2019-04-29T05:06:51.274Z,21.63
2019-04-29T05:07:55.509Z,22.93
2019-04-29T05:08:59.745Z,22.67
2019-04-29T05:10:04.005Z,22.83
2019-04-29T05:11:08.247Z,20.43
2019-04-29T05:12:14.081Z,22.50
2019-04-29T05:13:27.789Z,20.63
2019-04-29T05:14:24.420Z,21.13
2019-04-29T05:15:28.691Z,20.90
2019-04-29T05:16:32.926Z,21.80
2019-04-29T05:17:37.195Z,25.30
2019-04-29T05:18:41.535Z,22.80
2019-04-29T05:19:45.774Z,21.27
2019-04-29T05:20:50.004Z,21.17
2019-04-29T05:21:54.252Z,24.37
2019-04-29T05:23:01.591Z,22.03
2019-04-29T05:24:05.817Z,21.33
2019-04-29T05:25:10.298Z,19.40
2019-04-29T05:26:14.545Z,21.27
2019-04-29T05:27:18.821Z,22.87
2019-04-29T05:28:23.129Z,21.50
2019-04-29T05:29:28.744Z,20.43
2019-04-29T05:30:33.140Z,21.27
2019-04-29T05:31:37.375Z,20.97
2019-04-29T05:32:41.641Z,21.93
2019-04-29T05:33:45.891Z,21.73
2019-04-29T05:34:54.792Z,27.43
2019-04-29T05:36:08.504Z,20.67
2019-04-29T05:37:24.796Z,20.37
2019-04-29T05:38:33.139Z,19.73
2019-04-29T05:39:40.089Z,18.63
2019-04-29T05:40:46.882Z,17.27
2019-04-29T05:41:51.120Z,20.27
2019-04-29T05:42:55.387Z,19.67
2019-04-29T05:44:14.382Z,22.10
2019-04-29T05:45:26.707Z,19.03
2019-04-29T05:46:36.068Z,20.47
2019-04-29T05:47:52.315Z,18.07
2019-04-29T05:48:55.819Z,18.50
2019-04-29T05:50:23.543Z,19.27
2019-04-29T05:51:49.279Z,18.93
2019-04-29T05:53:18.662Z,19.23
2019-04-29T05:54:26.972Z,20.70
2019-04-29T05:55:29.281Z,21.47
2019-04-29T05:56:33.507Z,18.53
2019-04-29T05:57:37.752Z,20.80
2019-04-29T05:58:42.022Z,17.50
2019-04-29T05:59:47.915Z,18.67
2019-04-29T06:01:02.048Z,20.80
2019-04-29T06:02:06.275Z,17.10
2019-04-29T06:03:10.548Z,18.33
2019-04-29T06:04:16.460Z,20.13
2019-04-29T06:05:20.700Z,20.23
2019-04-29T06:06:24.940Z,19.27
2019-04-29T06:07:29.171Z,19.83
2019-04-29T06:08:34.454Z,18.53
2019-04-29T06:09:39.312Z,21.37
2019-04-29T06:10:43.538Z,19.23
2019-04-29T06:11:47.919Z,22.63
2019-04-29T06:12:52.139Z,18.37
2019-04-29T06:13:56.405Z,19.20
2019-04-29T06:15:00.744Z,19.20
2019-04-29T06:16:04.966Z,21.53
2019-04-29T06:17:09.128Z,18.63
2019-04-29T06:18:13.370Z,18.93
2019-04-29T06:19:17.635Z,16.77
2019-04-29T06:20:22.898Z,19.37
2019-04-29T06:21:27.217Z,19.00
2019-04-29T06:22:31.468Z,17.97
2019-04-29T06:23:35.823Z,18.03
2019-04-29T06:24:41.063Z,18.57
2019-04-29T06:25:45.976Z,17.47
2019-04-29T06:26:50.199Z,18.13
2019-04-29T06:27:54.443Z,18.70
2019-04-29T06:28:58.710Z,16.97
2019-04-29T06:30:04.900Z,16.07
2019-04-29T06:31:09.171Z,16.87
2019-04-29T06:32:13.484Z,16.63
2019-04-29T06:33:17.730Z,16.23
2019-04-29T06:34:21.994Z,15.77
2019-04-29T06:35:26.228Z,15.53
2019-04-29T06:36:30.572Z,16.87
2019-04-29T06:37:34.804Z,20.57
2019-04-29T06:38:39.022Z,15.63
2019-04-29T06:39:43.211Z,17.20
2019-04-29T06:40:47.457Z,16.27
2019-04-29T06:41:51.685Z,17.47
2019-04-29T06:42:55.914Z,17.97
2019-04-29T06:44:00.755Z,16.07
2019-04-29T06:45:06.410Z,16.07
2019-04-29T06:46:10.644Z,17.03
2019-04-29T06:47:17.022Z,16.53
2019-04-29T06:48:20.775Z,16.90
2019-04-29T06:49:25.063Z,16.47
2019-04-29T06:50:29.318Z,15.53
2019-04-29T06:51:33.548Z,15.27
2019-04-29T06:52:37.781Z,15.30
2019-04-29T06:53:42.135Z,15.67
2019-04-29T06:54:46.396Z,15.43
2019-04-29T06:55:50.634Z,16.03
2019-04-29T06:56:54.872Z,14.57
2019-04-29T06:57:59.128Z,14.57
2019-04-29T06:59:03.388Z,12.97
2019-04-29T07:00:07.655Z,13.40
2019-04-29T07:01:11.908Z,13.90
2019-04-29T07:02:16.209Z,13.43
2019-04-29T07:03:20.903Z,13.60
2019-04-29T07:04:26.366Z,12.70
2019-04-29T07:05:30.641Z,13.00
2019-04-29T07:06:34.882Z,12.33
2019-04-29T07:07:39.106Z,11.87
2019-04-29T07:08:43.408Z,12.90
2019-04-29T07:09:47.684Z,12.30
2019-04-29T07:10:56.029Z,13.40
2019-04-29T07:12:01.267Z,12.13
2019-04-29T07:13:04.056Z,15.00
2019-04-29T07:14:08.305Z,12.87
2019-04-29T07:15:13.882Z,14.37
2019-04-29T07:16:21.785Z,12.17
2019-04-29T07:17:24.218Z,12.80
2019-04-29T07:18:28.576Z,13.30
2019-04-29T07:19:32.789Z,14.10
2019-04-29T07:20:38.735Z,12.43
2019-04-29T07:21:47.051Z,14.23
2019-04-29T07:22:48.975Z,12.93
2019-04-29T07:23:53.235Z,12.57
2019-04-29T07:24:57.496Z,12.87
2019-04-29T07:26:01.718Z,14.10
2019-04-29T07:27:05.986Z,12.97
2019-04-29T07:28:13.795Z,11.73
2019-04-29T07:29:16.320Z,11.57
2019-04-29T07:30:20.774Z,12.40
2019-04-29T07:31:28.263Z,12.97
2019-04-29T07:32:32.412Z,12.43
2019-04-29T07:33:36.794Z,11.43
2019-04-29T07:34:41.029Z,12.43
2019-04-29T07:35:47.976Z,13.10
2019-04-29T07:36:53.290Z,13.07
2019-04-29T07:37:57.263Z,11.87
2019-04-29T07:39:01.492Z,14.27
2019-04-29T07:40:08.007Z,12.37
2019-04-29T07:41:14.258Z,12.73
2019-04-29T07:42:17.699Z,11.93
2019-04-29T07:43:21.922Z,12.23
2019-04-29T07:44:42.688Z,12.97
2019-04-29T07:45:50.396Z,11.40
2019-04-29T07:46:58.309Z,11.80
2019-04-29T07:48:05.770Z,10.67
2019-04-29T07:49:07.476Z,11.37
2019-04-29T07:50:11.861Z,11.53
2019-04-29T07:51:16.244Z,11.03
2019-04-29T07:52:20.498Z,10.13
2019-04-29T07:53:34.662Z,11.87
2019-04-29T07:54:30.609Z,12.17
2019-04-29T07:55:34.952Z,11.23
2019-04-29T07:56:42.295Z,11.57
2019-04-29T07:57:47.749Z,10.70
2019-04-29T07:58:50.999Z,11.50
2019-04-29T07:59:55.237Z,10.10
2019-04-29T08:00:59.520Z,10.17
2019-04-29T08:02:03.747Z,10.53
2019-04-29T08:03:08.340Z,11.07
2019-04-29T08:04:12.566Z,11.97
2019-04-29T08:05:16.814Z,10.75
2019-04-29T08:06:21.079Z,10.90
2019-04-29T08:07:25.322Z,10.60
2019-04-29T08:08:30.531Z,10.10
2019-04-29T08:09:34.768Z,11.08
2019-04-29T08:10:53.689Z,10.68
2019-04-29T08:11:44.910Z,10.58
2019-04-29T08:12:49.135Z,10.40
2019-04-29T08:13:53.369Z,10.50
2019-04-29T08:14:59.956Z,10.65
2019-04-29T08:16:03.492Z,10.32
2019-04-29T08:17:07.765Z,10.08
2019-04-29T08:18:16.277Z,10.68
2019-04-29T08:19:18.192Z,10.63
2019-04-29T08:20:22.432Z,10.00
2019-04-29T08:21:26.691Z,11.10
2019-04-29T08:22:31.022Z,10.45
2019-04-29T08:23:41.071Z,10.78
2019-04-29T08:24:41.156Z,9.93
2019-04-29T08:25:45.385Z,11.12
2019-04-29T08:26:49.651Z,10.23
2019-04-29T08:27:53.976Z,9.35
2019-04-29T08:29:00.326Z,9.68
2019-04-29T08:30:06.685Z,10.35
2019-04-29T08:31:10.162Z,10.00
2019-04-29T08:32:14.424Z,10.15
2019-04-29T08:33:18.651Z,12.40
2019-04-29T08:34:24.216Z,10.48
2019-04-29T08:35:28.563Z,10.03
2019-04-29T08:36:32.805Z,10.15
2019-04-29T08:37:37.036Z,9.43
2019-04-29T08:38:41.281Z,10.05
2019-04-29T08:40:00.310Z,9.35
2019-04-29T08:40:51.757Z,9.95
2019-04-29T08:41:58.908Z,10.45
2019-04-29T08:43:27.057Z,9.33
2019-04-29T08:44:44.800Z,8.68
2019-04-29T08:45:56.765Z,8.48
2019-04-29T08:47:13.196Z,8.45
2019-04-29T08:48:17.429Z,10.03
2019-04-29T08:49:21.652Z,9.53
2019-04-29T08:50:25.898Z,8.83
2019-04-29T08:51:30.125Z,8.90
2019-04-29T08:52:34.575Z,8.40
2019-04-29T08:53:38.827Z,9.45
2019-04-29T08:54:43.066Z,9.83
2019-04-29T08:55:47.355Z,8.85
2019-04-29T08:57:02.943Z,8.53
2019-04-29T08:57:57.559Z,9.68
2019-04-29T08:59:01.818Z,8.40
2019-04-29T09:00:09.632Z,8.63
2019-04-29T09:01:13.856Z,9.53
2019-04-29T09:02:33.217Z,9.58
2019-04-29T09:03:24.461Z,9.33
2019-04-29T09:04:33.161Z,8.53
2019-04-29T09:05:34.566Z,9.88
2019-04-29T09:06:38.805Z,10.05
2019-04-29T09:07:43.062Z,10.55
2019-04-29T09:08:54.516Z,9.70
2019-04-29T09:09:56.053Z,9.13
2019-04-29T09:10:59.085Z,10.10
2019-04-29T09:12:03.308Z,10.48
2019-04-29T09:13:07.584Z,11.28
2019-04-29T09:14:13.002Z,10.30
2019-04-29T09:15:17.356Z,11.03
2019-04-29T09:16:21.579Z,9.68
2019-04-29T09:17:25.809Z,10.93
2019-04-29T09:18:30.145Z,10.55
2019-04-29T09:19:34.310Z,10.18
2019-04-29T09:20:38.551Z,10.20
2019-04-29T09:21:45.041Z,10.08
2019-04-29T09:22:59.662Z,10.63
2019-04-29T09:24:04.152Z,8.95
2019-04-29T09:25:26.498Z,8.70
2019-04-29T09:26:37.792Z,9.40
2019-04-29T09:27:45.052Z,8.95
2019-04-29T09:28:49.959Z,9.00
2019-04-29T09:29:58.403Z,9.43
2019-04-29T09:31:00.015Z,9.48
2019-04-29T09:32:04.552Z,9.10
2019-04-29T09:33:12.809Z,9.38
2019-04-29T09:34:14.691Z,8.60
2019-04-29T09:35:18.911Z,8.63
2019-04-29T09:36:23.148Z,9.10
2019-04-29T09:37:27.371Z,8.93
2019-04-29T09:38:32.556Z,8.55
2019-04-29T09:39:43.253Z,8.33
2019-04-29T09:40:54.571Z,8.55
2019-04-29T09:42:17.571Z,7.65
2019-04-29T09:43:33.573Z,7.28
2019-04-29T09:44:59.360Z,7.53
2019-04-29T09:46:06.843Z,7.28
2019-04-29T09:47:11.389Z,7.28
2019-04-29T09:48:15.620Z,6.72
2019-04-29T09:49:19.883Z,7.37
2019-04-29T09:50:24.142Z,6.60
2019-04-29T09:51:29.766Z,6.28
2019-04-29T09:52:34.063Z,7.35
2019-04-29T09:53:38.351Z,6.40
2019-04-29T09:54:42.611Z,6.28
2019-04-29T09:55:46.839Z,6.70
2019-04-29T09:56:51.056Z,6.17
2019-04-29T09:57:55.293Z,6.42
2019-04-29T09:59:17.088Z,6.50
2019-04-29T10:00:40.659Z,5.83
2019-04-29T10:02:03.244Z,6.20
2019-04-29T10:03:17.775Z,5.85
2019-04-29T10:04:36.983Z,6.05
2019-04-29T10:05:44.457Z,5.42
2019-04-29T10:06:51.325Z,6.03
2019-04-29T10:07:55.557Z,5.65
2019-04-29T10:08:59.846Z,6.10
2019-04-29T10:10:06.891Z,5.67
2019-04-29T10:11:10.228Z,5.95
2019-04-29T10:12:14.757Z,6.10
2019-04-29T10:13:18.971Z,5.55
2019-04-29T10:14:23.237Z,6.33
2019-04-29T10:15:36.366Z,5.97
2019-04-29T10:16:47.635Z,5.53
2019-04-29T10:18:02.936Z,5.87
2019-04-29T10:19:38.228Z,5.80
2019-04-29T10:20:51.809Z,5.92
2019-04-29T10:21:56.087Z,6.03
2019-04-29T10:23:00.311Z,5.92
2019-04-29T10:24:04.550Z,5.53
2019-04-29T10:25:08.856Z,5.10
2019-04-29T10:26:13.147Z,6.10
2019-04-29T10:27:17.373Z,5.75
2019-04-29T10:28:21.605Z,5.75
2019-04-29T10:29:26.963Z,5.75
2019-04-29T10:30:32.540Z,6.22
2019-04-29T10:31:36.885Z,6.45
2019-04-29T10:32:42.517Z,6.47
2019-04-29T10:33:50.227Z,7.10
2019-04-29T10:34:52.901Z,7.90
2019-04-29T10:35:57.169Z,10.93
2019-04-29T10:37:01.382Z,8.65
2019-04-29T10:38:05.840Z,10.18
2019-04-29T10:39:29.127Z,10.40
2019-04-29T10:40:56.577Z,6.70
2019-04-29T10:42:00.242Z,26.65
2019-04-29T10:43:29.007Z,11.28
2019-04-29T10:44:55.999Z,7.65
2019-04-29T10:46:34.427Z,7.08
2019-04-29T10:48:00.354Z,33.98
2019-04-29T10:49:23.511Z,7.37
2019-04-29T10:50:31.948Z,6.12
2019-04-29T10:51:36.170Z,5.33
2019-04-29T10:52:43.261Z,6.25
2019-04-29T10:53:46.590Z,4.90
2019-04-29T10:54:55.432Z,5.47
2019-04-29T10:56:00.863Z,10.50
2019-04-29T10:57:03.994Z,6.65
2019-04-29T10:58:08.179Z,5.05
2019-04-29T10:59:12.448Z,14.65
2019-04-29T11:00:35.300Z,6.70
2019-04-29T11:02:30.918Z,5.83
2019-04-29T11:03:35.271Z,6.72
2019-04-29T11:04:39.512Z,13.08
2019-04-29T11:06:00.347Z,5.53
2019-04-29T11:06:57.481Z,8.55
2019-04-29T11:08:20.655Z,7.58
2019-04-29T11:09:52.823Z,7.60
2019-04-29T11:11:22.154Z,51.48
2019-04-29T11:12:17.837Z,46.02
2019-04-29T11:13:22.170Z,22.32
2019-04-29T11:14:26.517Z,5.62
2019-04-29T11:15:36.683Z,26.57
2019-04-29T11:16:46.470Z,41.53
2019-04-29T11:17:46.822Z,10.32
2019-04-29T11:18:54.973Z,6.40
2019-04-29T11:19:56.928Z,5.15
2019-04-29T11:21:01.179Z,5.15
2019-04-29T11:22:05.487Z,6.75
2019-04-29T11:23:18.863Z,5.37
2019-04-29T11:24:42.641Z,5.25
2019-04-29T11:26:00.989Z,5.15
2019-04-29T11:27:24.829Z,4.85
2019-04-29T11:28:29.091Z,6.20
2019-04-29T11:29:35.708Z,5.40
2019-04-29T11:30:40.617Z,5.15
2019-04-29T11:31:49.187Z,5.87
2019-04-29T11:33:00.068Z,5.35
2019-04-29T11:34:15.976Z,5.00
2019-04-29T11:35:36.099Z,4.67
2019-04-29T11:36:44.076Z,4.83
2019-04-29T11:37:50.008Z,4.85
2019-04-29T11:38:52.167Z,5.35
2019-04-29T11:39:57.142Z,4.90
2019-04-29T11:41:01.619Z,4.47
2019-04-29T11:42:06.505Z,4.37
2019-04-29T11:43:15.578Z,4.30
2019-04-29T11:44:21.977Z,4.60
2019-04-29T11:45:24.448Z,4.62
2019-04-29T11:46:28.691Z,4.28
2019-04-29T11:47:33.060Z,5.20
2019-04-29T11:48:37.294Z,4.65
2019-04-29T11:49:50.468Z,4.50
2019-04-29T11:51:16.708Z,3.70
2019-04-29T11:52:23.658Z,4.45
2019-04-29T11:53:26.882Z,4.10
2019-04-29T11:54:31.104Z,4.22
2019-04-29T11:55:36.172Z,4.28
2019-04-29T11:56:40.413Z,5.05
2019-04-29T11:57:52.796Z,4.03
2019-04-29T11:59:09.474Z,4.33
2019-04-29T12:00:26.980Z,3.30
2019-04-29T12:01:50.980Z,3.40
2019-04-29T12:02:58.038Z,3.50
2019-04-29T12:04:04.355Z,3.85
2019-04-29T12:05:17.970Z,3.50
2019-04-29T12:06:22.208Z,3.52
2019-04-29T12:07:32.085Z,4.10
2019-04-29T12:08:32.421Z,3.85
2019-04-29T12:09:36.624Z,4.45
2019-04-29T12:10:46.898Z,4.05
2019-04-29T12:11:46.906Z,3.72
2019-04-29T12:12:51.191Z,4.30
2019-04-29T12:14:17.032Z,3.20
2019-04-29T12:15:37.867Z,3.58
2019-04-29T12:16:46.196Z,3.72
2019-04-29T12:17:57.491Z,4.70
2019-04-29T12:19:12.944Z,3.25
2019-04-29T12:20:25.219Z,4.20
2019-04-29T12:21:31.192Z,3.10
2019-04-29T12:22:47.717Z,3.25
2019-04-29T12:23:41.576Z,3.20
2019-04-29T12:24:45.823Z,2.70
2019-04-29T12:25:50.054Z,3.85
2019-04-29T12:26:54.291Z,5.12
2019-04-29T12:28:01.399Z,3.40
2019-04-29T12:29:04.855Z,4.00
2019-04-29T12:30:10.666Z,3.67
2019-04-29T12:31:37.020Z,5.58
2019-04-29T12:33:15.583Z,3.52
2019-04-29T12:34:37.628Z,5.12
2019-04-29T12:35:51.973Z,3.80
2019-04-29T12:36:56.817Z,3.40
2019-04-29T12:38:18.423Z,3.40
2019-04-29T12:39:45.058Z,3.87
2019-04-29T12:41:21.482Z,3.60
2019-04-29T12:42:44.168Z,3.20
2019-04-29T12:44:01.830Z,4.42
2019-04-29T12:45:21.968Z,4.00
2019-04-29T12:46:47.848Z,3.55
2019-04-29T12:47:52.323Z,3.42
2019-04-29T12:48:56.638Z,4.00
2019-04-29T12:50:00.946Z,4.12
2019-04-29T12:51:05.200Z,4.65
2019-04-29T12:52:09.493Z,4.12
2019-04-29T12:53:13.967Z,5.03
2019-04-29T12:54:18.206Z,4.50
2019-04-29T12:55:43.656Z,4.50
2019-04-29T12:56:36.599Z,4.22
2019-04-29T12:57:40.833Z,3.62
2019-04-29T12:58:50.249Z,5.25
2019-04-29T12:59:54.211Z,3.85
2019-04-29T13:01:01.269Z,3.77
2019-04-29T13:02:26.996Z,4.10
2019-04-29T13:03:39.975Z,3.40
2019-04-29T13:04:59.688Z,3.77
2019-04-29T13:06:24.143Z,4.05
2019-04-29T13:07:37.480Z,3.50
2019-04-29T13:08:50.847Z,4.12
2019-04-29T13:09:57.059Z,3.98
2019-04-29T13:11:06.088Z,3.95
2019-04-29T13:12:19.114Z,7.08
2019-04-29T13:13:20.042Z,4.33
2019-04-29T13:14:23.656Z,3.50
2019-04-29T13:15:43.836Z,4.12
2019-04-29T13:16:58.900Z,4.35
2019-04-29T13:18:12.690Z,4.33
2019-04-29T13:19:21.121Z,4.47
2019-04-29T13:20:26.846Z,4.12
2019-04-29T13:21:31.074Z,4.20
2019-04-29T13:22:35.319Z,4.55
2019-04-29T13:23:55.154Z,4.60
2019-04-29T13:24:45.484Z,4.87
2019-04-29T13:25:51.050Z,4.40
2019-04-29T13:26:55.580Z,5.20
2019-04-29T13:28:03.995Z,5.12
2019-04-29T13:29:05.765Z,5.08
2019-04-29T13:30:15.035Z,5.58
2019-04-29T13:31:20.183Z,5.33
2019-04-29T13:32:29.267Z,5.20
2019-04-29T13:33:28.952Z,4.92
2019-04-29T13:34:37.636Z,5.20
2019-04-29T13:35:47.946Z,5.80
2019-04-29T13:37:06.114Z,6.60
2019-04-29T13:37:53.636Z,5.45
2019-04-29T13:38:57.887Z,5.20
2019-04-29T13:40:02.113Z,5.83
2019-04-29T13:41:13.660Z,5.30
2019-04-29T13:42:15.528Z,6.83
2019-04-29T13:43:20.754Z,6.37
2019-04-29T13:44:24.152Z,5.97
2019-04-29T13:45:36.031Z,5.83
2019-04-29T13:47:11.374Z,6.73
2019-04-29T13:48:24.448Z,6.00
2019-04-29T13:49:40.609Z,6.60
2019-04-29T13:50:51.895Z,7.03
2019-04-29T13:51:56.925Z,7.23
2019-04-29T13:53:01.173Z,7.27
2019-04-29T13:54:06.165Z,7.07
2019-04-29T13:55:17.679Z,6.93
2019-04-29T13:56:35.065Z,6.53
2019-04-29T13:57:22.543Z,7.37
2019-04-29T13:58:27.650Z,6.87
2019-04-29T14:00:01.037Z,7.20
2019-04-29T14:01:32.625Z,7.17
2019-04-29T14:02:58.769Z,7.80
2019-04-29T14:04:03.337Z,7.90
2019-04-29T14:05:08.611Z,7.37
2019-04-29T14:06:14.446Z,8.37
2019-04-29T14:07:19.905Z,8.17
2019-04-29T14:08:28.531Z,8.60
2019-04-29T14:09:30.232Z,8.93
2019-04-29T14:10:34.525Z,11.10
2019-04-29T14:11:38.777Z,9.70
2019-04-29T14:12:48.304Z,8.70
2019-04-29T14:13:48.856Z,9.70
2019-04-29T14:14:53.921Z,9.63
2019-04-29T14:15:59.097Z,8.70
2019-04-29T14:17:17.380Z,8.60
2019-04-29T14:18:11.716Z,8.90
2019-04-29T14:19:20.492Z,8.80
2019-04-29T14:20:21.026Z,9.90
2019-04-29T14:21:25.606Z,9.40
2019-04-29T14:22:31.201Z,8.97
2019-04-29T14:23:35.452Z,9.90
2019-04-29T14:24:39.708Z,9.63
2019-04-29T14:25:43.974Z,9.23
2019-04-29T14:26:48.203Z,10.07
2019-04-29T14:27:52.477Z,9.77
2019-04-29T14:28:56.689Z,10.10
2019-04-29T14:30:03.188Z,9.77
2019-04-29T14:31:06.947Z,11.63
2019-04-29T14:32:11.291Z,10.13
2019-04-29T14:33:19.356Z,46.93
2019-04-29T14:34:30.522Z,21.57
2019-04-29T14:35:49.950Z,112.70
2019-04-29T14:36:57.436Z,11.70
2019-04-29T14:38:04.876Z,12.03